sensor_id;sensor_type;location;lat;lon;timestamp;P1;durP1;ratioP1;P2;durP2;ratioP2
39404;SDS011;25121;51.090;17.038;2023-04-03T00:01:06;10.20;;;4.53;;
39404;SDS011;25121;51.090;17.038;2023-04-03T00:02:29;8.70;;;3.70;;
39404;SDS011;25121;51.090;17.038;2023-04-03T00:03:54;9.98;;;3.80;;
39404;SDS011;25121;51.090;17.038;2023-04-03T00:05:17;8.98;;;4.05;;
39404;SDS011;25121;51.090;17.038;2023-04-03T00:06:40;8.80;;;4.03;;
39404;SDS011;25121;51.090;17.038;2023-04-03T00:08:12;10.10;;;3.80;;
39404;SDS011;25121;51.090;17.038;2023-04-03T00:09:41;14.18;;;4.82;;
39404;SDS011;25121;51.090;17.038;2023-04-03T00:11:03;9.15;;;4.68;;
39404;SDS011;25121;51.090;17.038;2023-04-03T00:12:31;10.50;;;3.72;;
39404;SDS011;25121;51.090;17.038;2023-04-03T00:13:53;10.13;;;3.95;;
39404;SDS011;25121;51.090;17.038;2023-04-03T00:15:24;11.90;;;4.60;;
39404;SDS011;25121;51.090;17.038;2023-04-03T00:16:47;8.13;;;3.67;;
39404;SDS011;25121;51.090;17.038;2023-04-03T00:18:11;9.98;;;3.92;;
39404;SDS011;25121;51.090;17.038;2023-04-03T00:19:32;7.47;;;4.20;;
39404;SDS011;25121;51.090;17.038;2023-04-03T00:20:57;10.57;;;3.90;;
39404;SDS011;25121;51.090;17.038;2023-04-03T00:22:18;9.10;;;3.92;;
39404;SDS011;25121;51.090;17.038;2023-04-03T00:25:12;8.68;;;3.40;;
39404;SDS011;25121;51.090;17.038;2023-04-03T00:26:36;10.00;;;4.03;;
39404;SDS011;25121;51.090;17.038;2023-04-03T00:28:00;10.80;;;4.03;;
39404;SDS011;25121;51.090;17.038;2023-04-03T00:29:22;10.82;;;4.32;;
39404;SDS011;25121;51.090;17.038;2023-04-03T00:30:44;10.77;;;4.03;;
39404;SDS011;25121;51.090;17.038;2023-04-03T00:32:06;9.45;;;3.97;;
39404;SDS011;25121;51.090;17.038;2023-04-03T00:33:29;7.50;;;4.22;;
39404;SDS011;25121;51.090;17.038;2023-04-03T00:34:50;7.65;;;3.97;;
39404;SDS011;25121;51.090;17.038;2023-04-03T00:36:12;8.27;;;4.20;;
39404;SDS011;25121;51.090;17.038;2023-04-03T00:37:35;8.02;;;4.18;;
39404;SDS011;25121;51.090;17.038;2023-04-03T00:38:57;10.15;;;4.72;;
39404;SDS011;25121;51.090;17.038;2023-04-03T00:40:19;9.02;;;4.05;;
39404;SDS011;25121;51.090;17.038;2023-04-03T00:41:42;10.23;;;4.10;;
39404;SDS011;25121;51.090;17.038;2023-04-03T00:43:11;10.10;;;5.00;;
39404;SDS011;25121;51.090;17.038;2023-04-03T00:46:37;9.45;;;4.13;;
39404;SDS011;25121;51.090;17.038;2023-04-03T00:48:03;11.30;;;4.18;;
39404;SDS011;25121;51.090;17.038;2023-04-03T00:49:31;9.18;;;4.88;;
39404;SDS011;25121;51.090;17.038;2023-04-03T00:50:55;12.52;;;4.85;;
39404;SDS011;25121;51.090;17.038;2023-04-03T00:52:19;6.78;;;4.03;;
39404;SDS011;25121;51.090;17.038;2023-04-03T00:53:46;10.85;;;4.40;;
39404;SDS011;25121;51.090;17.038;2023-04-03T00:55:11;8.60;;;4.03;;
39404;SDS011;25121;51.090;17.038;2023-04-03T00:56:36;9.75;;;4.45;;
39404;SDS011;25121;51.090;17.038;2023-04-03T00:58:00;10.55;;;4.35;;
39404;SDS011;25121;51.090;17.038;2023-04-03T00:59:25;9.43;;;4.30;;
39404;SDS011;25121;51.090;17.038;2023-04-03T01:00:54;9.95;;;4.35;;
39404;SDS011;25121;51.090;17.038;2023-04-03T01:02:19;9.73;;;4.68;;
39404;SDS011;25121;51.090;17.038;2023-04-03T01:03:45;9.88;;;4.00;;
39404;SDS011;25121;51.090;17.038;2023-04-03T01:05:11;8.20;;;4.53;;
39404;SDS011;25121;51.090;17.038;2023-04-03T01:06:37;10.38;;;4.63;;
39404;SDS011;25121;51.090;17.038;2023-04-03T01:08:01;10.75;;;4.55;;
39404;SDS011;25121;51.090;17.038;2023-04-03T01:09:24;15.15;;;4.15;;
39404;SDS011;25121;51.090;17.038;2023-04-03T01:10:53;15.52;;;4.38;;
39404;SDS011;25121;51.090;17.038;2023-04-03T01:12:16;7.93;;;4.60;;
39404;SDS011;25121;51.090;17.038;2023-04-03T01:13:55;11.63;;;4.30;;
39404;SDS011;25121;51.090;17.038;2023-04-03T01:15:25;7.82;;;4.00;;
39404;SDS011;25121;51.090;17.038;2023-04-03T01:16:52;9.27;;;4.03;;
39404;SDS011;25121;51.090;17.038;2023-04-03T01:18:17;10.85;;;4.25;;
39404;SDS011;25121;51.090;17.038;2023-04-03T01:19:47;13.10;;;4.40;;
39404;SDS011;25121;51.090;17.038;2023-04-03T01:23:37;12.02;;;5.00;;
39404;SDS011;25121;51.090;17.038;2023-04-03T01:25:17;7.63;;;3.80;;
39404;SDS011;25121;51.090;17.038;2023-04-03T01:26:39;11.55;;;4.30;;
39404;SDS011;25121;51.090;17.038;2023-04-03T01:28:17;8.23;;;4.15;;
39404;SDS011;25121;51.090;17.038;2023-04-03T01:29:43;6.60;;;4.15;;
39404;SDS011;25121;51.090;17.038;2023-04-03T01:31:22;13.73;;;4.45;;
39404;SDS011;25121;51.090;17.038;2023-04-03T01:32:53;7.72;;;4.30;;
39404;SDS011;25121;51.090;17.038;2023-04-03T01:34:26;13.75;;;4.97;;
39404;SDS011;25121;51.090;17.038;2023-04-03T01:35:55;9.60;;;4.43;;
39404;SDS011;25121;51.090;17.038;2023-04-03T01:37:18;9.43;;;3.92;;
39404;SDS011;25121;51.090;17.038;2023-04-03T01:38:41;14.05;;;4.13;;
39404;SDS011;25121;51.090;17.038;2023-04-03T01:40:02;9.90;;;4.15;;
39404;SDS011;25121;51.090;17.038;2023-04-03T01:41:26;12.20;;;4.65;;
39404;SDS011;25121;51.090;17.038;2023-04-03T01:43:01;14.57;;;6.15;;
39404;SDS011;25121;51.090;17.038;2023-04-03T01:44:27;9.90;;;5.45;;
39404;SDS011;25121;51.090;17.038;2023-04-03T01:45:54;11.10;;;3.97;;
39404;SDS011;25121;51.090;17.038;2023-04-03T01:47:16;11.48;;;4.80;;
39404;SDS011;25121;51.090;17.038;2023-04-03T01:48:40;8.32;;;4.15;;
39404;SDS011;25121;51.090;17.038;2023-04-03T01:50:05;12.05;;;4.57;;
39404;SDS011;25121;51.090;17.038;2023-04-03T01:51:29;9.05;;;4.45;;
39404;SDS011;25121;51.090;17.038;2023-04-03T01:52:51;11.60;;;4.65;;
39404;SDS011;25121;51.090;17.038;2023-04-03T01:54:14;7.35;;;4.63;;
39404;SDS011;25121;51.090;17.038;2023-04-03T01:55:36;10.98;;;4.35;;
39404;SDS011;25121;51.090;17.038;2023-04-03T01:56:58;10.38;;;5.38;;
39404;SDS011;25121;51.090;17.038;2023-04-03T01:58:21;9.23;;;4.75;;
39404;SDS011;25121;51.090;17.038;2023-04-03T01:59:45;10.18;;;4.75;;
39404;SDS011;25121;51.090;17.038;2023-04-03T02:01:07;9.00;;;4.35;;
39404;SDS011;25121;51.090;17.038;2023-04-03T02:02:34;10.70;;;4.53;;
39404;SDS011;25121;51.090;17.038;2023-04-03T02:04:00;10.45;;;4.60;;
39404;SDS011;25121;51.090;17.038;2023-04-03T02:05:23;12.18;;;4.80;;
39404;SDS011;25121;51.090;17.038;2023-04-03T02:06:46;9.82;;;4.57;;
39404;SDS011;25121;51.090;17.038;2023-04-03T02:08:08;13.38;;;4.82;;
39404;SDS011;25121;51.090;17.038;2023-04-03T02:09:38;9.57;;;4.30;;
39404;SDS011;25121;51.090;17.038;2023-04-03T02:11:12;13.57;;;4.72;;
39404;SDS011;25121;51.090;17.038;2023-04-03T02:12:33;9.18;;;4.25;;
39404;SDS011;25121;51.090;17.038;2023-04-03T02:13:59;8.05;;;4.28;;
39404;SDS011;25121;51.090;17.038;2023-04-03T02:15:21;11.93;;;4.43;;
39404;SDS011;25121;51.090;17.038;2023-04-03T02:16:43;9.10;;;4.60;;
39404;SDS011;25121;51.090;17.038;2023-04-03T02:18:05;11.88;;;4.03;;
39404;SDS011;25121;51.090;17.038;2023-04-03T02:19:29;7.43;;;4.07;;
39404;SDS011;25121;51.090;17.038;2023-04-03T02:20:51;12.75;;;5.10;;
39404;SDS011;25121;51.090;17.038;2023-04-03T02:22:13;10.73;;;4.43;;
39404;SDS011;25121;51.090;17.038;2023-04-03T02:23:36;11.73;;;4.47;;
39404;SDS011;25121;51.090;17.038;2023-04-03T02:24:58;11.13;;;5.57;;
39404;SDS011;25121;51.090;17.038;2023-04-03T02:26:19;13.10;;;5.03;;
39404;SDS011;25121;51.090;17.038;2023-04-03T02:27:42;13.23;;;4.88;;
39404;SDS011;25121;51.090;17.038;2023-04-03T02:29:03;16.10;;;5.63;;
39404;SDS011;25121;51.090;17.038;2023-04-03T02:30:28;9.20;;;4.20;;
39404;SDS011;25121;51.090;17.038;2023-04-03T02:31:51;11.73;;;4.50;;
39404;SDS011;25121;51.090;17.038;2023-04-03T02:33:16;12.95;;;4.53;;
39404;SDS011;25121;51.090;17.038;2023-04-03T02:34:38;12.05;;;4.78;;
39404;SDS011;25121;51.090;17.038;2023-04-03T02:36:02;11.52;;;4.47;;
39404;SDS011;25121;51.090;17.038;2023-04-03T02:37:26;7.40;;;4.35;;
39404;SDS011;25121;51.090;17.038;2023-04-03T02:38:53;13.57;;;4.90;;
39404;SDS011;25121;51.090;17.038;2023-04-03T02:40:15;11.35;;;5.35;;
39404;SDS011;25121;51.090;17.038;2023-04-03T02:41:37;12.02;;;5.25;;
39404;SDS011;25121;51.090;17.038;2023-04-03T02:43:05;14.43;;;4.85;;
39404;SDS011;25121;51.090;17.038;2023-04-03T02:45:49;8.32;;;4.43;;
39404;SDS011;25121;51.090;17.038;2023-04-03T02:47:10;11.25;;;5.57;;
39404;SDS011;25121;51.090;17.038;2023-04-03T02:48:33;10.07;;;4.45;;
39404;SDS011;25121;51.090;17.038;2023-04-03T02:49:57;10.88;;;4.78;;
39404;SDS011;25121;51.090;17.038;2023-04-03T02:51:22;10.02;;;4.53;;
39404;SDS011;25121;51.090;17.038;2023-04-03T02:52:45;7.90;;;4.72;;
39404;SDS011;25121;51.090;17.038;2023-04-03T02:54:08;11.02;;;5.38;;
39404;SDS011;25121;51.090;17.038;2023-04-03T02:55:32;13.95;;;5.20;;
39404;SDS011;25121;51.090;17.038;2023-04-03T02:56:55;10.35;;;4.57;;
39404;SDS011;25121;51.090;17.038;2023-04-03T02:58:17;13.98;;;5.50;;
39404;SDS011;25121;51.090;17.038;2023-04-03T02:59:41;9.38;;;4.65;;
39404;SDS011;25121;51.090;17.038;2023-04-03T03:03:59;8.80;;;5.30;;
39404;SDS011;25121;51.090;17.038;2023-04-03T03:05:23;8.73;;;5.35;;
39404;SDS011;25121;51.090;17.038;2023-04-03T03:06:46;10.27;;;4.40;;
39404;SDS011;25121;51.090;17.038;2023-04-03T03:08:07;20.83;;;5.50;;
39404;SDS011;25121;51.090;17.038;2023-04-03T03:09:30;9.32;;;5.65;;
39404;SDS011;25121;51.090;17.038;2023-04-03T03:10:52;14.88;;;5.28;;
39404;SDS011;25121;51.090;17.038;2023-04-03T03:12:14;12.68;;;5.25;;
39404;SDS011;25121;51.090;17.038;2023-04-03T03:13:36;14.88;;;5.05;;
39404;SDS011;25121;51.090;17.038;2023-04-03T03:14:58;12.82;;;4.75;;
39404;SDS011;25121;51.090;17.038;2023-04-03T03:17:42;9.80;;;4.93;;
39404;SDS011;25121;51.090;17.038;2023-04-03T03:19:13;15.68;;;5.78;;
39404;SDS011;25121;51.090;17.038;2023-04-03T03:20:37;13.88;;;4.78;;
39404;SDS011;25121;51.090;17.038;2023-04-03T03:22:00;13.93;;;5.35;;
39404;SDS011;25121;51.090;17.038;2023-04-03T03:23:23;10.75;;;5.78;;
39404;SDS011;25121;51.090;17.038;2023-04-03T03:24:46;11.20;;;5.38;;
39404;SDS011;25121;51.090;17.038;2023-04-03T03:26:11;15.50;;;5.38;;
39404;SDS011;25121;51.090;17.038;2023-04-03T03:27:38;8.38;;;5.32;;
39404;SDS011;25121;51.090;17.038;2023-04-03T03:29:01;9.38;;;6.03;;
39404;SDS011;25121;51.090;17.038;2023-04-03T03:30:27;11.40;;;5.05;;
39404;SDS011;25121;51.090;17.038;2023-04-03T03:31:49;13.45;;;5.63;;
39404;SDS011;25121;51.090;17.038;2023-04-03T03:34:33;13.13;;;6.07;;
39404;SDS011;25121;51.090;17.038;2023-04-03T03:35:57;11.25;;;5.95;;
39404;SDS011;25121;51.090;17.038;2023-04-03T03:37:19;16.83;;;7.03;;
39404;SDS011;25121;51.090;17.038;2023-04-03T03:38:41;11.85;;;6.32;;
39404;SDS011;25121;51.090;17.038;2023-04-03T03:40:03;24.00;;;7.50;;
39404;SDS011;25121;51.090;17.038;2023-04-03T03:41:30;11.43;;;5.82;;
39404;SDS011;25121;51.090;17.038;2023-04-03T03:42:55;13.57;;;7.28;;
39404;SDS011;25121;51.090;17.038;2023-04-03T03:44:17;10.20;;;5.50;;
39404;SDS011;25121;51.090;17.038;2023-04-03T03:45:40;12.95;;;5.57;;
39404;SDS011;25121;51.090;17.038;2023-04-03T03:47:01;11.85;;;6.93;;
39404;SDS011;25121;51.090;17.038;2023-04-03T03:48:33;13.75;;;5.80;;
39404;SDS011;25121;51.090;17.038;2023-04-03T03:49:58;11.52;;;5.70;;
39404;SDS011;25121;51.090;17.038;2023-04-03T03:52:44;11.48;;;5.53;;
39404;SDS011;25121;51.090;17.038;2023-04-03T03:55:29;13.05;;;5.97;;
39404;SDS011;25121;51.090;17.038;2023-04-03T03:56:51;14.00;;;7.35;;
39404;SDS011;25121;51.090;17.038;2023-04-03T03:58:16;13.30;;;5.50;;
39404;SDS011;25121;51.090;17.038;2023-04-03T03:59:38;18.25;;;6.80;;
39404;SDS011;25121;51.090;17.038;2023-04-03T04:01:02;11.82;;;5.90;;
39404;SDS011;25121;51.090;17.038;2023-04-03T04:02:30;12.95;;;5.68;;
39404;SDS011;25121;51.090;17.038;2023-04-03T04:03:52;15.50;;;6.63;;
39404;SDS011;25121;51.090;17.038;2023-04-03T04:05:19;13.23;;;7.53;;
39404;SDS011;25121;51.090;17.038;2023-04-03T04:06:45;14.88;;;7.00;;
39404;SDS011;25121;51.090;17.038;2023-04-03T04:08:10;16.88;;;6.00;;
39404;SDS011;25121;51.090;17.038;2023-04-03T04:09:35;11.02;;;5.85;;
39404;SDS011;25121;51.090;17.038;2023-04-03T04:11:01;13.73;;;6.63;;
39404;SDS011;25121;51.090;17.038;2023-04-03T04:12:25;9.63;;;6.50;;
39404;SDS011;25121;51.090;17.038;2023-04-03T04:13:47;13.98;;;5.90;;
39404;SDS011;25121;51.090;17.038;2023-04-03T04:15:21;13.48;;;6.70;;
39404;SDS011;25121;51.090;17.038;2023-04-03T04:16:56;21.38;;;6.78;;
39404;SDS011;25121;51.090;17.038;2023-04-03T04:18:56;11.15;;;7.00;;
39404;SDS011;25121;51.090;17.038;2023-04-03T04:20:32;15.73;;;6.38;;
39404;SDS011;25121;51.090;17.038;2023-04-03T04:21:56;10.65;;;6.55;;
39404;SDS011;25121;51.090;17.038;2023-04-03T04:23:18;15.77;;;6.85;;
39404;SDS011;25121;51.090;17.038;2023-04-03T04:24:42;11.13;;;5.68;;
39404;SDS011;25121;51.090;17.038;2023-04-03T04:26:03;9.52;;;5.95;;
39404;SDS011;25121;51.090;17.038;2023-04-03T04:27:29;13.38;;;6.28;;
39404;SDS011;25121;51.090;17.038;2023-04-03T04:30:14;16.02;;;6.03;;
39404;SDS011;25121;51.090;17.038;2023-04-03T04:31:41;15.02;;;6.60;;
39404;SDS011;25121;51.090;17.038;2023-04-03T04:33:04;10.40;;;6.20;;
39404;SDS011;25121;51.090;17.038;2023-04-03T04:34:27;14.20;;;6.22;;
39404;SDS011;25121;51.090;17.038;2023-04-03T04:35:56;12.57;;;6.00;;
39404;SDS011;25121;51.090;17.038;2023-04-03T04:37:19;10.57;;;6.50;;
39404;SDS011;25121;51.090;17.038;2023-04-03T04:38:41;12.80;;;6.13;;
39404;SDS011;25121;51.090;17.038;2023-04-03T04:40:05;12.13;;;6.72;;
39404;SDS011;25121;51.090;17.038;2023-04-03T04:41:27;15.13;;;7.00;;
39404;SDS011;25121;51.090;17.038;2023-04-03T04:42:50;14.35;;;6.50;;
39404;SDS011;25121;51.090;17.038;2023-04-03T04:44:13;16.80;;;6.55;;
39404;SDS011;25121;51.090;17.038;2023-04-03T04:45:36;11.10;;;6.68;;
39404;SDS011;25121;51.090;17.038;2023-04-03T04:47:08;10.13;;;5.88;;
39404;SDS011;25121;51.090;17.038;2023-04-03T04:48:34;10.27;;;5.70;;
39404;SDS011;25121;51.090;17.038;2023-04-03T04:50:41;8.38;;;5.00;;
39404;SDS011;25121;51.090;17.038;2023-04-03T04:52:04;11.75;;;6.32;;
39404;SDS011;25121;51.090;17.038;2023-04-03T04:53:29;13.15;;;6.75;;
39404;SDS011;25121;51.090;17.038;2023-04-03T04:54:52;9.93;;;5.50;;
39404;SDS011;25121;51.090;17.038;2023-04-03T04:56:13;11.40;;;5.78;;
39404;SDS011;25121;51.090;17.038;2023-04-03T04:57:36;16.58;;;6.05;;
39404;SDS011;25121;51.090;17.038;2023-04-03T04:58:59;9.60;;;5.07;;
39404;SDS011;25121;51.090;17.038;2023-04-03T05:00:25;10.15;;;5.70;;
39404;SDS011;25121;51.090;17.038;2023-04-03T05:01:48;14.75;;;5.82;;
39404;SDS011;25121;51.090;17.038;2023-04-03T05:03:11;10.35;;;4.90;;
39404;SDS011;25121;51.090;17.038;2023-04-03T05:04:36;9.30;;;4.93;;
39404;SDS011;25121;51.090;17.038;2023-04-03T05:06:05;11.38;;;5.70;;
39404;SDS011;25121;51.090;17.038;2023-04-03T05:07:28;15.63;;;6.07;;
39404;SDS011;25121;51.090;17.038;2023-04-03T05:08:53;15.02;;;5.28;;
39404;SDS011;25121;51.090;17.038;2023-04-03T05:10:16;18.95;;;6.55;;
39404;SDS011;25121;51.090;17.038;2023-04-03T05:11:41;26.38;;;6.55;;
39404;SDS011;25121;51.090;17.038;2023-04-03T05:13:05;12.98;;;5.50;;
39404;SDS011;25121;51.090;17.038;2023-04-03T05:14:33;17.33;;;6.22;;
39404;SDS011;25121;51.090;17.038;2023-04-03T05:18:42;20.08;;;6.40;;
39404;SDS011;25121;51.090;17.038;2023-04-03T05:20:10;10.13;;;5.38;;
39404;SDS011;25121;51.090;17.038;2023-04-03T05:21:33;9.25;;;5.13;;
39404;SDS011;25121;51.090;17.038;2023-04-03T05:23:00;13.23;;;6.13;;
39404;SDS011;25121;51.090;17.038;2023-04-03T05:24:28;11.68;;;5.53;;
39404;SDS011;25121;51.090;17.038;2023-04-03T05:25:54;9.65;;;5.30;;
39404;SDS011;25121;51.090;17.038;2023-04-03T05:27:22;15.23;;;5.10;;
39404;SDS011;25121;51.090;17.038;2023-04-03T05:28:47;13.25;;;5.55;;
39404;SDS011;25121;51.090;17.038;2023-04-03T05:31:34;9.80;;;5.60;;
39404;SDS011;25121;51.090;17.038;2023-04-03T05:32:58;14.07;;;6.00;;
39404;SDS011;25121;51.090;17.038;2023-04-03T05:34:37;15.60;;;5.28;;
39404;SDS011;25121;51.090;17.038;2023-04-03T05:36:02;14.75;;;4.72;;
39404;SDS011;25121;51.090;17.038;2023-04-03T05:37:29;29.67;;;8.75;;
39404;SDS011;25121;51.090;17.038;2023-04-03T05:38:51;13.38;;;6.15;;
39404;SDS011;25121;51.090;17.038;2023-04-03T05:40:15;13.23;;;5.20;;
39404;SDS011;25121;51.090;17.038;2023-04-03T05:41:41;9.85;;;4.95;;
39404;SDS011;25121;51.090;17.038;2023-04-03T05:43:06;14.70;;;5.68;;
39404;SDS011;25121;51.090;17.038;2023-04-03T05:44:33;9.43;;;5.47;;
39404;SDS011;25121;51.090;17.038;2023-04-03T05:45:56;13.95;;;5.20;;
39404;SDS011;25121;51.090;17.038;2023-04-03T05:47:20;13.30;;;5.25;;
39404;SDS011;25121;51.090;17.038;2023-04-03T05:48:43;13.63;;;5.53;;
39404;SDS011;25121;51.090;17.038;2023-04-03T05:50:10;18.27;;;5.35;;
39404;SDS011;25121;51.090;17.038;2023-04-03T05:51:33;14.05;;;5.25;;
39404;SDS011;25121;51.090;17.038;2023-04-03T05:53:06;13.85;;;5.68;;
39404;SDS011;25121;51.090;17.038;2023-04-03T05:54:34;11.20;;;5.57;;
39404;SDS011;25121;51.090;17.038;2023-04-03T05:56:05;15.20;;;5.97;;
39404;SDS011;25121;51.090;17.038;2023-04-03T05:57:32;11.70;;;5.28;;
39404;SDS011;25121;51.090;17.038;2023-04-03T05:58:57;10.27;;;5.43;;
39404;SDS011;25121;51.090;17.038;2023-04-03T06:00:20;15.63;;;6.07;;
39404;SDS011;25121;51.090;17.038;2023-04-03T06:01:51;11.10;;;5.00;;
39404;SDS011;25121;51.090;17.038;2023-04-03T06:03:17;10.32;;;5.63;;
39404;SDS011;25121;51.090;17.038;2023-04-03T06:04:45;11.60;;;5.43;;
39404;SDS011;25121;51.090;17.038;2023-04-03T06:06:14;12.55;;;5.40;;
39404;SDS011;25121;51.090;17.038;2023-04-03T06:07:36;7.68;;;4.72;;
39404;SDS011;25121;51.090;17.038;2023-04-03T06:08:59;17.63;;;8.75;;
39404;SDS011;25121;51.090;17.038;2023-04-03T06:10:23;9.27;;;5.00;;
39404;SDS011;25121;51.090;17.038;2023-04-03T06:11:46;14.90;;;5.97;;
39404;SDS011;25121;51.090;17.038;2023-04-03T06:13:09;12.40;;;5.85;;
39404;SDS011;25121;51.090;17.038;2023-04-03T06:14:33;13.77;;;5.22;;
39404;SDS011;25121;51.090;17.038;2023-04-03T06:15:55;11.02;;;5.18;;
39404;SDS011;25121;51.090;17.038;2023-04-03T06:17:19;10.75;;;4.90;;
39404;SDS011;25121;51.090;17.038;2023-04-03T06:18:41;11.65;;;5.80;;
39404;SDS011;25121;51.090;17.038;2023-04-03T06:20:05;13.25;;;5.00;;
39404;SDS011;25121;51.090;17.038;2023-04-03T06:21:28;10.20;;;4.57;;
39404;SDS011;25121;51.090;17.038;2023-04-03T06:22:50;7.55;;;4.72;;
39404;SDS011;25121;51.090;17.038;2023-04-03T06:24:13;10.52;;;4.65;;
39404;SDS011;25121;51.090;17.038;2023-04-03T06:25:37;8.88;;;4.63;;
39404;SDS011;25121;51.090;17.038;2023-04-03T06:27:04;7.18;;;4.75;;
39404;SDS011;25121;51.090;17.038;2023-04-03T06:28:27;12.98;;;4.88;;
39404;SDS011;25121;51.090;17.038;2023-04-03T06:29:49;13.48;;;5.95;;
39404;SDS011;25121;51.090;17.038;2023-04-03T06:31:19;10.48;;;5.10;;
39404;SDS011;25121;51.090;17.038;2023-04-03T06:32:44;12.10;;;4.38;;
39404;SDS011;25121;51.090;17.038;2023-04-03T06:34:06;10.90;;;5.30;;
39404;SDS011;25121;51.090;17.038;2023-04-03T06:35:29;10.27;;;4.97;;
39404;SDS011;25121;51.090;17.038;2023-04-03T06:36:51;9.80;;;4.57;;
39404;SDS011;25121;51.090;17.038;2023-04-03T06:38:14;14.02;;;5.07;;
39404;SDS011;25121;51.090;17.038;2023-04-03T06:39:36;13.27;;;5.80;;
39404;SDS011;25121;51.090;17.038;2023-04-03T06:42:22;9.13;;;4.80;;
39404;SDS011;25121;51.090;17.038;2023-04-03T06:43:53;10.57;;;5.25;;
39404;SDS011;25121;51.090;17.038;2023-04-03T06:45:16;10.52;;;4.82;;
39404;SDS011;25121;51.090;17.038;2023-04-03T06:46:39;13.75;;;5.55;;
39404;SDS011;25121;51.090;17.038;2023-04-03T06:48:01;11.60;;;5.38;;
39404;SDS011;25121;51.090;17.038;2023-04-03T06:49:24;9.75;;;5.07;;
39404;SDS011;25121;51.090;17.038;2023-04-03T06:50:46;9.73;;;4.40;;
39404;SDS011;25121;51.090;17.038;2023-04-03T06:52:08;8.60;;;5.07;;
39404;SDS011;25121;51.090;17.038;2023-04-03T06:53:32;10.98;;;5.68;;
39404;SDS011;25121;51.090;17.038;2023-04-03T06:54:54;10.73;;;5.60;;
39404;SDS011;25121;51.090;17.038;2023-04-03T06:56:18;9.85;;;4.72;;
39404;SDS011;25121;51.090;17.038;2023-04-03T06:57:42;10.57;;;5.00;;
39404;SDS011;25121;51.090;17.038;2023-04-03T06:59:04;13.57;;;4.75;;
39404;SDS011;25121;51.090;17.038;2023-04-03T07:00:29;8.20;;;4.63;;
39404;SDS011;25121;51.090;17.038;2023-04-03T07:03:14;10.10;;;4.88;;
39404;SDS011;25121;51.090;17.038;2023-04-03T07:04:37;8.75;;;4.60;;
39404;SDS011;25121;51.090;17.038;2023-04-03T07:05:59;6.63;;;4.72;;
39404;SDS011;25121;51.090;17.038;2023-04-03T07:07:21;9.88;;;4.80;;
39404;SDS011;25121;51.090;17.038;2023-04-03T07:08:44;7.10;;;4.45;;
39404;SDS011;25121;51.090;17.038;2023-04-03T07:10:07;12.07;;;4.43;;
39404;SDS011;25121;51.090;17.038;2023-04-03T07:11:30;8.35;;;4.63;;
39404;SDS011;25121;51.090;17.038;2023-04-03T07:12:54;10.85;;;4.57;;
39404;SDS011;25121;51.090;17.038;2023-04-03T07:14:16;9.07;;;4.50;;
39404;SDS011;25121;51.090;17.038;2023-04-03T07:15:46;7.60;;;5.25;;
39404;SDS011;25121;51.090;17.038;2023-04-03T07:17:10;7.75;;;4.13;;
39404;SDS011;25121;51.090;17.038;2023-04-03T07:18:32;8.93;;;4.57;;
39404;SDS011;25121;51.090;17.038;2023-04-03T07:19:55;5.97;;;4.75;;
39404;SDS011;25121;51.090;17.038;2023-04-03T07:21:17;8.48;;;4.28;;
39404;SDS011;25121;51.090;17.038;2023-04-03T07:22:39;11.18;;;4.50;;
39404;SDS011;25121;51.090;17.038;2023-04-03T07:24:01;8.93;;;4.60;;
39404;SDS011;25121;51.090;17.038;2023-04-03T07:25:24;7.75;;;4.18;;
39404;SDS011;25121;51.090;17.038;2023-04-03T07:26:49;8.65;;;4.20;;
39404;SDS011;25121;51.090;17.038;2023-04-03T07:28:14;11.00;;;4.82;;
39404;SDS011;25121;51.090;17.038;2023-04-03T07:29:36;8.85;;;4.50;;
39404;SDS011;25121;51.090;17.038;2023-04-03T07:31:03;7.07;;;3.92;;
39404;SDS011;25121;51.090;17.038;2023-04-03T07:32:29;8.55;;;4.82;;
39404;SDS011;25121;51.090;17.038;2023-04-03T07:35:12;9.27;;;4.47;;
39404;SDS011;25121;51.090;17.038;2023-04-03T07:36:35;7.25;;;4.75;;
39404;SDS011;25121;51.090;17.038;2023-04-03T07:38:00;13.10;;;4.68;;
39404;SDS011;25121;51.090;17.038;2023-04-03T07:39:22;8.20;;;4.57;;
39404;SDS011;25121;51.090;17.038;2023-04-03T07:40:45;11.50;;;4.55;;
39404;SDS011;25121;51.090;17.038;2023-04-03T07:42:07;11.57;;;4.72;;
39404;SDS011;25121;51.090;17.038;2023-04-03T07:43:32;13.25;;;4.53;;
39404;SDS011;25121;51.090;17.038;2023-04-03T07:44:54;9.32;;;4.03;;
39404;SDS011;25121;51.090;17.038;2023-04-03T07:46:19;8.63;;;4.13;;
39404;SDS011;25121;51.090;17.038;2023-04-03T07:47:41;9.98;;;4.68;;
39404;SDS011;25121;51.090;17.038;2023-04-03T07:49:04;9.93;;;4.85;;
39404;SDS011;25121;51.090;17.038;2023-04-03T07:50:26;7.28;;;4.63;;
39404;SDS011;25121;51.090;17.038;2023-04-03T07:51:52;7.65;;;3.97;;
39404;SDS011;25121;51.090;17.038;2023-04-03T07:53:17;11.63;;;4.10;;
39404;SDS011;25121;51.090;17.038;2023-04-03T07:54:47;7.15;;;3.75;;
39404;SDS011;25121;51.090;17.038;2023-04-03T07:56:10;12.60;;;4.50;;
39404;SDS011;25121;51.090;17.038;2023-04-03T07:57:34;9.15;;;4.65;;
39404;SDS011;25121;51.090;17.038;2023-04-03T07:58:58;7.03;;;3.80;;
39404;SDS011;25121;51.090;17.038;2023-04-03T08:00:20;7.43;;;3.92;;
39404;SDS011;25121;51.090;17.038;2023-04-03T08:01:46;11.00;;;4.95;;
39404;SDS011;25121;51.090;17.038;2023-04-03T08:03:14;8.20;;;4.30;;
39404;SDS011;25121;51.090;17.038;2023-04-03T08:04:38;8.30;;;4.10;;
39404;SDS011;25121;51.090;17.038;2023-04-03T08:06:01;6.63;;;3.80;;
39404;SDS011;25121;51.090;17.038;2023-04-03T08:07:28;7.15;;;4.10;;
39404;SDS011;25121;51.090;17.038;2023-04-03T08:08:50;7.95;;;4.00;;
39404;SDS011;25121;51.090;17.038;2023-04-03T08:10:14;7.20;;;4.03;;
39404;SDS011;25121;51.090;17.038;2023-04-03T08:11:40;9.77;;;4.28;;
39404;SDS011;25121;51.090;17.038;2023-04-03T08:13:04;6.60;;;3.70;;
39404;SDS011;25121;51.090;17.038;2023-04-03T08:14:34;7.95;;;4.07;;
39404;SDS011;25121;51.090;17.038;2023-04-03T08:15:57;7.75;;;3.92;;
39404;SDS011;25121;51.090;17.038;2023-04-03T08:17:19;10.05;;;4.13;;
39404;SDS011;25121;51.090;17.038;2023-04-03T08:18:44;9.18;;;3.70;;
39404;SDS011;25121;51.090;17.038;2023-04-03T08:20:07;6.40;;;3.55;;
39404;SDS011;25121;51.090;17.038;2023-04-03T08:21:31;7.15;;;3.58;;
39404;SDS011;25121;51.090;17.038;2023-04-03T08:22:56;11.93;;;4.47;;
39404;SDS011;25121;51.090;17.038;2023-04-03T08:24:21;7.28;;;3.00;;
39404;SDS011;25121;51.090;17.038;2023-04-03T08:25:43;7.22;;;3.47;;
39404;SDS011;25121;51.090;17.038;2023-04-03T08:27:06;7.20;;;3.58;;
39404;SDS011;25121;51.090;17.038;2023-04-03T08:28:28;3.97;;;2.70;;
39404;SDS011;25121;51.090;17.038;2023-04-03T08:29:52;6.63;;;3.10;;
39404;SDS011;25121;51.090;17.038;2023-04-03T08:31:27;6.00;;;3.35;;
39404;SDS011;25121;51.090;17.038;2023-04-03T08:32:49;5.38;;;3.55;;
39404;SDS011;25121;51.090;17.038;2023-04-03T08:34:15;6.80;;;2.83;;
39404;SDS011;25121;51.090;17.038;2023-04-03T08:35:41;5.50;;;3.33;;
39404;SDS011;25121;51.090;17.038;2023-04-03T08:37:05;5.10;;;3.15;;
39404;SDS011;25121;51.090;17.038;2023-04-03T08:38:28;4.28;;;2.80;;
39404;SDS011;25121;51.090;17.038;2023-04-03T08:39:50;7.97;;;2.67;;
39404;SDS011;25121;51.090;17.038;2023-04-03T08:41:19;5.38;;;2.90;;
39404;SDS011;25121;51.090;17.038;2023-04-03T08:42:54;7.22;;;3.35;;
39404;SDS011;25121;51.090;17.038;2023-04-03T08:44:25;6.40;;;3.30;;